Time;durP1;ratioP1;P1;durP2;ratioP2;P2;SDS_P1;SDS_P2;PMS_P1;PMS_P2;Temp;Humidity;BMP_temperature;BMP_pressure;BME280_temperature;BME280_humidity;BME280_pressure;Samples;Min_cycle;Max_cycle;Signal;HPM_P1;HPM_P2
2022/06/10 00:00:41;;;;;;;12.50;4.10;;;13.50;99.90;;;;;;4919350;28;20165;-59
2022/06/10 00:03:08;;;;;;;10.13;4.07;;;13.40;99.90;;;;;;4934090;28;20050;-61
2022/06/10 00:05:36;;;;;;;11.80;4.40;;;13.40;99.90;;;;;;4915153;28;20041;-59
2022/06/10 00:08:04;;;;;;;11.02;4.22;;;13.40;99.90;;;;;;4923357;28;20047;-61
2022/06/10 00:10:30;;;;;;;9.63;3.55;;;13.40;99.90;;;;;;4913083;28;20087;-58
2022/06/10 00:12:56;;;;;;;9.93;4.25;;;13.40;99.90;;;;;;4907575;28;20059;-59
2022/06/10 00:15:22;;;;;;;11.65;5.30;;;13.30;99.90;;;;;;4924928;28;20387;-59
2022/06/10 00:17:48;;;;;;;12.43;4.25;;;13.30;99.90;;;;;;4923715;28;20039;-61
2022/06/10 00:20:17;;;;;;;8.73;4.25;;;13.30;99.90;;;;;;4941595;28;20498;-61
2022/06/10 00:22:42;;;;;;;11.80;4.57;;;13.30;99.90;;;;;;4918017;28;20110;-58
2022/06/10 00:25:09;;;;;;;10.68;4.95;;;13.30;99.90;;;;;;4938755;28;20081;-61
2022/06/10 00:27:34;;;;;;;10.30;4.53;;;13.20;99.90;;;;;;4921916;28;20043;-62
2022/06/10 00:30:00;;;;;;;9.98;4.30;;;13.20;99.90;;;;;;4929109;28;20375;-61
2022/06/10 00:32:26;;;;;;;10.07;4.43;;;13.20;99.90;;;;;;4925876;28;20439;-61
2022/06/10 00:34:52;;;;;;;8.27;4.40;;;13.10;99.90;;;;;;4918064;28;20601;-60
2022/06/10 00:37:18;;;;;;;8.57;4.95;;;13.10;99.90;;;;;;4933190;28;22827;-60
2022/06/10 00:39:43;;;;;;;11.45;4.53;;;13.10;99.90;;;;;;4924474;28;20055;-62
2022/06/10 00:42:11;;;;;;;6.70;4.38;;;13.00;99.90;;;;;;4950686;28;20081;-61
2022/06/10 00:44:48;;;;;;;10.35;5.00;;;13.00;99.90;;;;;;4930918;28;20130;-59
2022/06/10 00:47:36;;;;;;;9.50;4.53;;;13.00;99.90;;;;;;4929137;28;20062;-57
2022/06/10 00:50:25;;;;;;;12.95;4.28;;;12.90;99.90;;;;;;4928076;28;20043;-61
2022/06/10 00:52:58;;;;;;;9.35;4.75;;;12.90;99.90;;;;;;4929448;28;20862;-60
2022/06/10 00:55:28;;;;;;;8.70;4.30;;;12.80;99.90;;;;;;4931649;28;20050;-59
2022/06/10 00:58:02;;;;;;;8.45;4.80;;;12.80;99.90;;;;;;4922818;28;20486;-58
2022/06/10 01:00:28;;;;;;;12.15;5.32;;;12.80;99.90;;;;;;4923396;28;20521;-61
2022/06/10 01:02:55;;;;;;;9.68;4.88;;;12.80;99.90;;;;;;4927505;28;20070;-58
2022/06/10 01:05:25;;;;;;;11.05;5.05;;;12.80;99.90;;;;;;4926306;28;20035;-59
2022/06/10 01:07:59;;;;;;;12.65;4.97;;;12.80;99.90;;;;;;4934641;28;20153;-61
2022/06/10 01:10:25;;;;;;;10.35;4.40;;;12.80;99.90;;;;;;4944766;28;20506;-61
2022/06/10 01:13:36;;;;;;;16.15;4.80;;;12.70;99.90;;;;;;4927765;28;20256;-58
2022/06/10 01:16:23;;;;;;;13.88;4.85;;;12.70;99.90;;;;;;4898122;28;20177;-57
2022/06/10 01:18:48;;;;;;;12.00;5.30;;;12.70;99.90;;;;;;4947436;28;20046;-60
2022/06/10 01:21:14;;;;;;;10.48;4.53;;;12.70;99.90;;;;;;4933971;28;20053;-61
2022/06/10 01:24:05;;;;;;;12.45;4.78;;;12.70;99.90;;;;;;4949332;28;20576;-57
2022/06/10 01:30:15;;;;;;;11.18;4.97;;;12.60;99.90;;;;;;4931245;28;20043;-59
2022/06/10 01:33:05;;;;;;;13.70;4.45;;;12.60;99.90;;;;;;4922717;28;20058;-59
2022/06/10 01:35:44;;;;;;;9.32;4.30;;;12.60;99.90;;;;;;4927587;28;20046;-59
2022/06/10 01:38:28;;;;;;;11.35;4.40;;;12.50;99.90;;;;;;4924221;28;20052;-61
2022/06/10 01:41:39;;;;;;;8.90;3.67;;;12.50;99.90;;;;;;4948955;28;20047;-57
2022/06/10 01:44:15;;;;;;;15.00;4.57;;;12.50;99.90;;;;;;4915214;28;20058;-57
2022/06/10 01:46:51;;;;;;;11.55;4.25;;;12.50;99.90;;;;;;4937520;28;20074;-60
2022/06/10 01:49:30;;;;;;;8.07;3.95;;;12.50;99.90;;;;;;4930601;28;20110;-56
2022/06/10 01:52:06;;;;;;;12.80;5.05;;;12.50;99.90;;;;;;4938405;28;20043;-57
2022/06/10 01:54:55;;;;;;;6.47;4.30;;;12.40;99.90;;;;;;4946555;28;20599;-58
2022/06/10 01:57:32;;;;;;;8.52;4.25;;;12.40;99.90;;;;;;4947664;28;20038;-58
2022/06/10 02:00:09;;;;;;;11.45;4.00;;;12.40;99.90;;;;;;4944372;28;20110;-57
2022/06/10 02:02:38;;;;;;;8.65;4.05;;;12.40;99.90;;;;;;4945737;28;20038;-56
2022/06/10 02:05:10;;;;;;;10.30;4.70;;;12.30;99.90;;;;;;4935856;28;21132;-58
2022/06/10 02:07:41;;;;;;;10.13;4.07;;;12.30;99.90;;;;;;4947906;28;22551;-60
2022/06/10 02:10:36;;;;;;;13.75;4.78;;;12.30;99.90;;;;;;4930472;28;20109;-60
2022/06/10 02:13:18;;;;;;;12.57;4.75;;;12.30;99.90;;;;;;4875049;28;20093;-59
2022/06/10 02:15:54;;;;;;;11.30;4.60;;;12.30;99.90;;;;;;4941817;28;20513;-60
2022/06/10 02:18:28;;;;;;;12.90;5.03;;;12.30;99.90;;;;;;4945516;28;20062;-59
2022/06/10 02:21:00;;;;;;;10.23;5.05;;;12.30;99.90;;;;;;4924642;28;20282;-59
2022/06/10 02:23:31;;;;;;;11.63;5.00;;;12.30;99.90;;;;;;4934983;28;20126;-58
2022/06/10 02:25:59;;;;;;;15.02;4.60;;;12.30;99.90;;;;;;4957751;28;20034;-57
2022/06/10 02:28:33;;;;;;;11.68;4.85;;;12.30;99.90;;;;;;4956801;28;20091;-60
2022/06/10 02:31:04;;;;;;;10.40;4.95;;;12.30;99.90;;;;;;4943942;28;20043;-59
2022/06/10 02:33:31;;;;;;;10.27;4.38;;;12.20;99.90;;;;;;4939499;28;20046;-60
2022/06/10 02:36:07;;;;;;;12.80;5.30;;;12.20;99.90;;;;;;4943301;28;20062;-58
2022/06/10 02:38:39;;;;;;;12.23;5.25;;;12.20;99.90;;;;;;4932751;28;20078;-57
2022/06/10 02:41:37;;;;;;;8.80;5.30;;;12.20;99.90;;;;;;4958327;28;20050;-58
2022/06/10 02:44:19;;;;;;;9.75;4.45;;;12.20;99.90;;;;;;4928577;28;20250;-59
2022/06/10 02:47:04;;;;;;;12.35;5.20;;;12.20;99.90;;;;;;4948068;28;20062;-60
2022/06/10 02:49:30;;;;;;;14.50;5.57;;;12.10;99.90;;;;;;4936034;28;20516;-59
2022/06/10 02:51:55;;;;;;;19.92;7.20;;;12.10;99.90;;;;;;4909280;28;20130;-60
2022/06/10 02:54:26;;;;;;;13.73;5.07;;;12.10;99.90;;;;;;4944940;28;20040;-61
2022/06/10 02:56:52;;;;;;;9.90;5.10;;;12.10;99.90;;;;;;4945191;28;20435;-57
2022/06/10 03:02:19;;;;;;;10.55;4.88;;;12.10;99.90;;;;;;4924919;28;20057;-59
2022/06/10 03:05:29;;;;;;;11.68;5.30;;;12.10;99.90;;;;;;4922349;28;20112;-59
2022/06/10 03:08:05;;;;;;;11.75;5.13;;;12.10;99.90;;;;;;4936995;28;22402;-59
2022/06/10 03:10:49;;;;;;;11.00;5.15;;;12.10;99.90;;;;;;4920521;28;20169;-59
2022/06/10 03:13:36;;;;;;;9.80;4.63;;;12.10;99.90;;;;;;4947073;28;20405;-57
2022/06/10 03:16:26;;;;;;;8.73;4.72;;;12.10;99.90;;;;;;4933109;28;20406;-61
2022/06/10 03:19:06;;;;;;;10.38;5.13;;;12.10;99.90;;;;;;4938135;28;20046;-59
2022/06/10 03:21:46;;;;;;;12.00;4.93;;;12.00;99.90;;;;;;4943511;28;20047;-60
2022/06/10 03:24:29;;;;;;;14.98;4.53;;;12.10;99.90;;;;;;4956933;28;20459;-57
2022/06/10 03:27:11;;;;;;;14.57;5.20;;;12.10;99.90;;;;;;4937513;28;20158;-59
2022/06/10 03:29:54;;;;;;;10.65;4.57;;;12.00;99.90;;;;;;4954960;28;20323;-59
2022/06/10 03:32:57;;;;;;;10.40;5.03;;;12.10;99.90;;;;;;4941048;28;20686;-59
2022/06/10 03:35:32;;;;;;;16.95;5.07;;;12.10;99.90;;;;;;4941268;28;20541;-58
2022/06/10 03:37:58;;;;;;;9.23;5.32;;;12.10;99.90;;;;;;4950483;28;20647;-57
2022/06/10 03:40:27;;;;;;;14.80;4.97;;;12.10;99.90;;;;;;4936394;28;20043;-59
2022/06/10 03:42:55;;;;;;;14.50;5.22;;;12.10;99.90;;;;;;4944974;28;20047;-60
2022/06/10 03:45:29;;;;;;;11.70;4.55;;;12.10;99.90;;;;;;4937766;28;20046;-59
2022/06/10 03:47:55;;;;;;;9.98;3.97;;;12.20;99.90;;;;;;4953854;28;20070;-62
2022/06/10 03:50:28;;;;;;;13.75;4.95;;;12.20;99.90;;;;;;4938298;28;20129;-62
2022/06/10 03:52:54;;;;;;;12.25;4.57;;;12.30;99.90;;;;;;4943705;28;20074;-58
2022/06/10 03:55:20;;;;;;;15.82;4.78;;;12.30;99.90;;;;;;4928110;28;20078;-62
2022/06/10 03:57:47;;;;;;;9.80;4.97;;;12.20;99.90;;;;;;4940193;28;20046;-57
2022/06/10 04:00:22;;;;;;;11.98;6.00;;;12.30;99.90;;;;;;4927603;28;20039;-62
2022/06/10 04:02:48;;;;;;;12.35;5.30;;;12.30;99.90;;;;;;4943672;28;20050;-61
2022/06/10 04:05:14;;;;;;;12.25;4.68;;;12.40;99.90;;;;;;4940318;28;20039;-57
2022/06/10 04:07:41;;;;;;;11.65;4.60;;;12.40;99.90;;;;;;4960656;28;20521;-60
2022/06/10 04:10:09;;;;;;;20.08;6.35;;;12.40;99.90;;;;;;4915359;28;20199;-59
2022/06/10 04:12:36;;;;;;;15.13;5.68;;;12.40;99.90;;;;;;4935148;28;20047;-62
2022/06/10 04:15:06;;;;;;;12.63;4.90;;;12.40;99.90;;;;;;4938258;28;20177;-56
2022/06/10 04:17:32;;;;;;;8.63;4.40;;;12.40;99.90;;;;;;4952224;28;20043;-60
2022/06/10 04:19:59;;;;;;;11.30;4.32;;;12.40;99.90;;;;;;4937584;28;20129;-56
2022/06/10 04:22:26;;;;;;;10.00;4.72;;;12.50;99.90;;;;;;4952831;28;20047;-58
2022/06/10 04:24:52;;;;;;;13.30;4.47;;;12.60;99.90;;;;;;4937729;28;20046;-60
2022/06/10 04:27:19;;;;;;;13.13;4.68;;;12.60;99.90;;;;;;4928797;28;20067;-64
2022/06/10 04:29:45;;;;;;;8.77;4.25;;;12.60;99.90;;;;;;4937186;28;20541;-59
2022/06/10 04:32:10;;;;;;;11.60;4.30;;;12.60;99.90;;;;;;4931641;28;20106;-60
2022/06/10 04:34:36;;;;;;;13.15;4.22;;;12.70;99.90;;;;;;4942357;28;20042;-60
2022/06/10 04:37:04;;;;;;;12.38;3.97;;;12.80;99.90;;;;;;4922237;28;20055;-62
2022/06/10 04:39:32;;;;;;;13.07;4.35;;;12.80;99.90;;;;;;4943152;28;20165;-60
2022/06/10 04:41:58;;;;;;;11.30;4.70;;;12.90;99.90;;;;;;4939417;28;20510;-61
2022/06/10 04:44:24;;;;;;;12.80;4.72;;;12.90;99.90;;;;;;4939792;28;20065;-61
2022/06/10 04:46:49;;;;;;;12.00;4.53;;;13.00;99.90;;;;;;4929507;28;20054;-62
2022/06/10 04:49:15;;;;;;;11.35;4.90;;;13.00;99.90;;;;;;4934239;28;20104;-57
2022/06/10 04:54:13;;;;;;;16.77;4.25;;;13.10;99.90;;;;;;4979599;28;20041;-57
2022/06/10 04:56:39;;;;;;;10.93;4.38;;;13.10;99.90;;;;;;4981985;28;20061;-58
2022/06/10 04:59:05;;;;;;;14.65;5.10;;;13.20;99.90;;;;;;4970609;28;20137;-63
2022/06/10 05:01:31;;;;;;;14.13;4.22;;;13.20;99.90;;;;;;4969091;28;20138;-60
2022/06/10 05:03:57;;;;;;;10.65;3.70;;;13.20;99.90;;;;;;4956354;28;20042;-58
2022/06/10 05:06:22;;;;;;;11.85;4.18;;;13.30;99.90;;;;;;4957674;28;20057;-57
2022/06/10 05:08:49;;;;;;;17.88;4.60;;;13.30;99.90;;;;;;4957151;28;20240;-57
2022/06/10 05:11:15;;;;;;;15.65;4.68;;;13.40;99.90;;;;;;4962846;28;20157;-58
2022/06/10 05:13:41;;;;;;;9.05;4.10;;;13.40;99.90;;;;;;4973454;28;20485;-63
2022/06/10 05:16:07;;;;;;;11.90;4.00;;;13.50;99.90;;;;;;4976103;28;20091;-60
2022/06/10 05:18:33;;;;;;;10.10;4.90;;;13.60;99.90;;;;;;4959818;28;20046;-58
2022/06/10 05:20:59;;;;;;;11.68;4.10;;;13.60;99.90;;;;;;4946638;28;20377;-61
2022/06/10 05:23:26;;;;;;;12.52;4.55;;;13.70;99.90;;;;;;4959352;28;20091;-57
2022/06/10 05:25:52;;;;;;;11.70;3.97;;;13.70;99.90;;;;;;4974825;28;20263;-57
2022/06/10 05:28:21;;;;;;;12.50;4.28;;;13.80;99.90;;;;;;4985032;28;20417;-64
2022/06/10 05:30:48;;;;;;;10.50;4.07;;;13.80;99.90;;;;;;4970151;28;20254;-62
2022/06/10 05:33:14;;;;;;;13.95;4.63;;;13.90;99.90;;;;;;4981494;28;20064;-59
2022/06/10 05:35:42;;;;;;;12.52;3.80;;;14.00;99.90;;;;;;4961692;28;20121;-58
2022/06/10 05:38:09;;;;;;;13.48;3.78;;;14.00;99.90;;;;;;4970616;28;20093;-58
2022/06/10 05:40:36;;;;;;;12.32;4.60;;;14.10;99.90;;;;;;4987462;28;20448;-57
2022/06/10 05:43:03;;;;;;;12.82;4.65;;;14.10;99.90;;;;;;4966460;28;20034;-65
2022/06/10 05:45:29;;;;;;;11.70;3.90;;;14.10;99.90;;;;;;4975903;28;20493;-60
2022/06/10 05:47:57;;;;;;;12.55;4.20;;;14.20;99.90;;;;;;4967915;28;20073;-58
2022/06/10 05:50:34;;;;;;;12.65;4.25;;;14.20;99.90;;;;;;4967152;28;20065;-55
2022/06/10 05:53:02;;;;;;;14.70;4.68;;;14.20;99.90;;;;;;4986089;28;20056;-59
2022/06/10 05:55:32;;;;;;;16.10;5.50;;;14.20;99.90;;;;;;4960925;28;20126;-63
2022/06/10 05:57:57;;;;;;;15.73;4.22;;;14.30;99.90;;;;;;4961457;28;20071;-58
2022/06/10 06:00:26;;;;;;;14.50;4.55;;;14.30;99.90;;;;;;4974132;28;20038;-58
2022/06/10 06:02:52;;;;;;;13.85;5.32;;;14.30;99.90;;;;;;4971940;28;20124;-57
2022/06/10 06:05:20;;;;;;;14.88;4.60;;;14.40;99.90;;;;;;4964472;28;20081;-58
2022/06/10 06:07:47;;;;;;;17.58;5.13;;;14.40;99.90;;;;;;4960078;28;20049;-63
2022/06/10 06:10:17;;;;;;;15.65;5.30;;;14.40;99.90;;;;;;4970906;28;20467;-60
2022/06/10 06:12:44;;;;;;;13.18;5.63;;;14.50;99.90;;;;;;4993954;28;20069;-59
2022/06/10 06:15:10;;;;;;;13.48;5.22;;;14.50;99.90;;;;;;4975481;28;20093;-56
2022/06/10 06:17:36;;;;;;;14.65;4.95;;;14.60;99.90;;;;;;4964506;28;20045;-56
2022/06/10 06:20:03;;;;;;;16.50;6.00;;;14.60;99.90;;;;;;4948719;28;20030;-57
2022/06/10 06:22:29;;;;;;;16.33;5.63;;;14.70;99.90;;;;;;4973285;28;20050;-62
2022/06/10 06:24:54;;;;;;;17.55;6.00;;;14.70;99.90;;;;;;4950280;28;20073;-60
2022/06/10 06:27:20;;;;;;;15.13;6.53;;;14.80;99.90;;;;;;4961139;28;20057;-59
2022/06/10 06:29:46;;;;;;;16.30;7.03;;;14.80;99.90;;;;;;4968757;28;20049;-58
2022/06/10 06:32:12;;;;;;;16.42;5.70;;;14.80;99.90;;;;;;4949318;28;20446;-59
2022/06/10 06:34:38;;;;;;;16.15;6.10;;;14.80;99.90;;;;;;4976150;28;20041;-59
2022/06/10 06:37:05;;;;;;;14.50;6.50;;;14.80;99.90;;;;;;4970667;28;20042;-63
2022/06/10 06:39:31;;;;;;;22.55;6.60;;;14.90;99.90;;;;;;4966473;28;20437;-61
2022/06/10 06:41:57;;;;;;;19.13;6.80;;;14.90;99.90;;;;;;4955305;28;20038;-59
2022/06/10 06:44:23;;;;;;;17.63;5.85;;;14.90;99.90;;;;;;4959395;28;20049;-59
2022/06/10 06:46:49;;;;;;;15.60;7.30;;;14.90;99.90;;;;;;4951025;28;20042;-59
2022/06/10 06:49:20;;;;;;;16.48;7.50;;;15.00;99.90;;;;;;4947957;28;20038;-59
2022/06/10 06:51:46;;;;;;;27.10;7.85;;;15.00;99.90;;;;;;4959564;28;20085;-62
2022/06/10 06:54:12;;;;;;;18.02;7.07;;;15.00;99.90;;;;;;4975977;28;20519;-59
2022/06/10 06:56:38;;;;;;;16.58;7.55;;;15.00;99.90;;;;;;4967994;28;20038;-58
2022/06/10 06:59:05;;;;;;;13.55;7.00;;;15.00;99.90;;;;;;4962287;28;20049;-59
2022/06/10 07:01:31;;;;;;;20.10;6.97;;;15.10;99.90;;;;;;4979041;28;20045;-59
2022/06/10 07:03:57;;;;;;;18.17;6.68;;;15.10;99.90;;;;;;4942072;28;21260;-60
2022/06/10 07:06:22;;;;;;;12.63;6.68;;;15.10;99.90;;;;;;4961424;28;20548;-63
2022/06/10 07:08:49;;;;;;;17.75;7.70;;;15.20;99.90;;;;;;4952966;28;20038;-60
2022/06/10 07:11:15;;;;;;;14.93;7.22;;;15.20;99.90;;;;;;4948532;28;20439;-60
2022/06/10 07:13:40;;;;;;;16.50;6.90;;;15.30;99.90;;;;;;4925090;28;20515;-61
2022/06/10 07:16:07;;;;;;;15.55;6.97;;;15.30;99.90;;;;;;4933613;28;20520;-59
2022/06/10 07:18:34;;;;;;;13.55;8.38;;;15.40;99.90;;;;;;4961837;28;20042;-60
2022/06/10 07:21:00;;;;;;;14.48;7.32;;;15.40;99.90;;;;;;4951966;28;20049;-62
2022/06/10 07:23:27;;;;;;;14.52;7.88;;;15.50;99.90;;;;;;4973298;28;20030;-60
2022/06/10 07:25:54;;;;;;;11.77;7.53;;;15.60;99.90;;;;;;4977698;28;20096;-59
2022/06/10 07:28:20;;;;;;;14.43;7.40;;;15.60;99.90;;;;;;4973143;28;20556;-60
2022/06/10 07:30:47;;;;;;;13.00;8.25;;;15.70;99.90;;;;;;4986819;28;20038;-58
2022/06/10 07:33:13;;;;;;;14.25;7.97;;;15.70;99.90;;;;;;4982224;28;20046;-58
2022/06/10 07:35:39;;;;;;;14.13;7.90;;;15.80;99.90;;;;;;4994825;28;20481;-63
2022/06/10 07:38:07;;;;;;;14.93;7.35;;;15.70;99.90;;;;;;4982743;28;20050;-62
2022/06/10 07:43:21;;;;;;;14.15;8.07;;;15.90;99.90;;;;;;4994742;28;20501;-60
2022/06/10 07:45:47;;;;;;;12.20;8.27;;;16.00;99.90;;;;;;4973265;28;20270;-62
2022/06/10 07:48:13;;;;;;;14.15;8.93;;;16.10;99.90;;;;;;4967816;28;20042;-62
2022/06/10 07:50:41;;;;;;;14.35;8.60;;;16.20;99.90;;;;;;4985575;28;20129;-60
2022/06/10 07:53:08;;;;;;;15.82;8.38;;;16.20;99.90;;;;;;4975805;28;20049;-58
2022/06/10 07:55:34;;;;;;;14.25;7.80;;;16.20;99.90;;;;;;4973505;28;20053;-59
2022/06/10 07:57:59;;;;;;;11.77;7.55;;;16.20;99.90;;;;;;4977926;28;20034;-59
2022/06/10 08:00:26;;;;;;;15.48;7.68;;;16.20;99.90;;;;;;4980888;28;20034;-62
2022/06/10 08:02:52;;;;;;;18.58;8.75;;;16.20;99.90;;;;;;4973111;28;20379;-59
2022/06/10 08:05:19;;;;;;;20.02;9.32;;;16.20;99.90;;;;;;4955449;28;20284;-57
2022/06/10 08:07:45;;;;;;;16.45;8.60;;;16.30;99.90;;;;;;4959168;28;20052;-59
2022/06/10 08:10:28;;;;;;;14.93;8.20;;;16.30;99.90;;;;;;4960497;28;20149;-61
2022/06/10 08:12:57;;;;;;;16.10;9.63;;;16.30;99.90;;;;;;4957939;28;20144;-62
2022/06/10 08:15:24;;;;;;;14.65;8.60;;;16.30;99.90;;;;;;4959669;28;20529;-57
2022/06/10 08:17:50;;;;;;;14.15;8.68;;;16.30;99.90;;;;;;4957491;28;20718;-59
2022/06/10 08:20:24;;;;;;;17.63;8.93;;;16.30;99.90;;;;;;4955144;28;20453;-59
2022/06/10 08:22:50;;;;;;;20.08;9.25;;;16.30;99.90;;;;;;4953772;28;20053;-59
2022/06/10 08:25:17;;;;;;;17.80;9.95;;;16.30;99.90;;;;;;4933590;28;20196;-62
2022/06/10 08:27:43;;;;;;;15.93;8.52;;;16.30;99.90;;;;;;4936400;28;20046;-60
2022/06/10 08:30:15;;;;;;;15.07;8.02;;;16.30;99.90;;;;;;4940832;28;20386;-57
2022/06/10 08:32:41;;;;;;;15.52;8.88;;;16.30;99.90;;;;;;4950674;28;20468;-59
2022/06/10 08:35:07;;;;;;;17.08;8.70;;;16.30;99.90;;;;;;4967561;28;20136;-60
2022/06/10 08:37:33;;;;;;;16.17;8.70;;;16.40;99.90;;;;;;4958562;28;20046;-64
2022/06/10 08:39:59;;;;;;;17.70;8.45;;;16.50;99.90;;;;;;4939403;28;20119;-62
2022/06/10 08:42:24;;;;;;;12.35;7.40;;;16.50;99.90;;;;;;4951656;28;20088;-60
2022/06/10 08:44:59;;;;;;;14.85;7.80;;;16.50;99.90;;;;;;4958969;28;20052;-59
2022/06/10 08:47:52;;;;;;;13.63;7.82;;;16.50;99.90;;;;;;4955175;28;21972;-59
2022/06/10 08:50:30;;;;;;;14.75;7.88;;;16.50;99.90;;;;;;4970034;28;20520;-60
2022/06/10 08:53:01;;;;;;;14.80;7.88;;;16.50;99.90;;;;;;4947924;28;20081;-60
2022/06/10 08:56:03;;;;;;;13.40;8.00;;;16.40;99.90;;;;;;4954810;28;20168;-58
2022/06/10 08:58:59;;;;;;;17.27;7.70;;;16.50;99.90;;;;;;4947641;28;20050;-60
2022/06/10 09:01:28;;;;;;;14.98;7.47;;;16.50;99.90;;;;;;4955260;28;20033;-60
2022/06/10 09:04:10;;;;;;;16.27;7.93;;;16.60;99.90;;;;;;4958399;28;20334;-58
2022/06/10 09:06:50;;;;;;;19.40;7.10;;;16.60;99.90;;;;;;4953121;28;20046;-60
2022/06/10 09:09:18;;;;;;;18.50;8.13;;;16.70;99.90;;;;;;4951435;28;20045;-63
2022/06/10 09:11:59;;;;;;;17.27;7.85;;;16.80;99.90;;;;;;4954329;28;20061;-62
2022/06/10 09:14:27;;;;;;;14.65;8.10;;;16.90;99.90;;;;;;4932987;28;20060;-59
2022/06/10 09:17:00;;;;;;;21.20;8.02;;;16.90;99.90;;;;;;4948246;28;20109;-61
2022/06/10 09:20:11;;;;;;;23.33;8.48;;;16.90;99.90;;;;;;4946140;28;20121;-61
2022/06/10 09:23:08;;;;;;;18.65;8.70;;;17.00;99.90;;;;;;4945323;28;20290;-62
2022/06/10 09:25:48;;;;;;;20.25;8.45;;;17.10;99.90;;;;;;4975892;28;20037;-60
2022/06/10 09:28:15;;;;;;;18.77;7.85;;;17.20;99.90;;;;;;4951245;28;20138;-63
2022/06/10 09:31:03;;;;;;;14.38;7.00;;;17.30;99.90;;;;;;4960825;28;20050;-61
2022/06/10 09:34:02;;;;;;;18.45;6.90;;;17.40;99.90;;;;;;4960052;28;20065;-59
2022/06/10 09:36:38;;;;;;;18.83;7.38;;;17.40;99.90;;;;;;4919946;28;20346;-59
2022/06/10 09:40:35;;;;;;;16.88;7.05;;;17.50;99.90;;;;;;4955213;28;20682;-58
2022/06/10 09:42:09;;;;;;;15.15;7.15;;;17.50;99.90;;;;;;4947852;28;20050;-62
2022/06/10 09:44:45;;;;;;;17.75;7.88;;;17.50;99.90;;;;;;4960574;28;20034;-58
2022/06/10 09:47:23;;;;;;;22.08;8.35;;;17.50;99.90;;;;;;4955065;28;20049;-59
2022/06/10 09:50:14;;;;;;;17.67;7.45;;;17.60;99.90;;;;;;4954338;28;20050;-64
2022/06/10 09:53:12;;;;;;;17.95;8.20;;;17.60;99.90;;;;;;4966784;28;20045;-59
2022/06/10 09:55:41;;;;;;;19.75;8.00;;;17.70;99.90;;;;;;4963085;28;20116;-60
2022/06/10 09:58:12;;;;;;;17.25;8.20;;;17.70;99.90;;;;;;4955209;28;20505;-59
2022/06/10 10:00:43;;;;;;;19.20;7.75;;;17.70;99.90;;;;;;4957037;28;20532;-56
2022/06/10 10:03:47;;;;;;;18.80;9.30;;;17.60;99.90;;;;;;4954639;28;20049;-61
2022/06/10 10:06:33;;;;;;;17.27;7.95;;;17.60;99.90;;;;;;4886803;29;20047;-60
2022/06/10 10:09:11;;;;;;;19.92;8.73;;;17.60;99.90;;;;;;4946226;28;20054;-61
2022/06/10 10:11:48;;;;;;;14.38;7.35;;;17.60;99.90;;;;;;4965343;28;20054;-61
2022/06/10 10:14:24;;;;;;;16.52;8.70;;;17.70;99.90;;;;;;4957175;28;20054;-60
2022/06/10 10:17:18;;;;;;;16.92;8.77;;;17.80;99.90;;;;;;4956698;28;20052;-63
2022/06/10 10:20:28;;;;;;;15.50;8.10;;;17.80;99.90;;;;;;4944897;28;20512;-61
2022/06/10 10:23:12;;;;;;;14.77;8.25;;;17.90;99.90;;;;;;4940443;28;20061;-61
2022/06/10 10:25:39;;;;;;;;;;;17.90;99.90;;;;;;4971768;28;20070;-59
2022/06/10 10:28:18;;;;;;;14.90;7.72;;;17.90;99.90;;;;;;4970125;28;20201;-61
2022/06/10 10:30:47;;;;;;;14.88;7.35;;;17.90;99.90;;;;;;4961523;28;20077;-58
2022/06/10 10:33:15;;;;;;;18.27;8.60;;;17.90;99.90;;;;;;4970459;28;20306;-60
2022/06/10 10:35:51;;;;;;;12.90;7.10;;;17.90;99.90;;;;;;4956230;28;20042;-60
2022/06/10 10:38:37;;;;;;;13.63;7.80;;;17.90;99.90;;;;;;4951521;28;20046;-61
2022/06/10 10:41:29;;;;;;;16.90;7.82;;;17.90;99.90;;;;;;4976254;28;20459;-59
2022/06/10 10:44:00;;;;;;;11.20;7.47;;;18.10;99.90;;;;;;4963756;28;20516;-62
2022/06/10 10:46:40;;;;;;;16.88;7.65;;;18.30;99.90;;;;;;4962668;28;20038;-56
2022/06/10 10:49:47;;;;;;;15.77;8.45;;;18.40;99.90;;;;;;4970746;28;20480;-56
2022/06/10 10:54:48;;;;;;;12.50;6.82;;;18.30;99.90;;;;;;4949737;28;20490;-59
2022/06/10 10:58:01;;;;;;;14.88;8.02;;;18.50;99.90;;;;;;4936843;28;20512;-60
2022/06/10 11:00:41;;;;;;;13.50;7.85;;;18.80;99.90;;;;;;4925732;28;21657;-63
2022/06/10 11:03:30;;;;;;;10.00;7.00;;;19.20;99.90;;;;;;4923749;28;20039;-61
2022/06/10 11:06:02;;;;;;;13.40;7.18;;;19.50;99.90;;;;;;4940668;28;21319;-61
2022/06/10 11:08:39;;;;;;;11.27;7.63;;;19.60;99.90;;;;;;4927735;28;20921;-60
2022/06/10 11:11:22;;;;;;;12.73;7.10;;;19.70;99.90;;;;;;4916165;28;20062;-60
2022/06/10 11:14:01;;;;;;;9.88;7.32;;;19.80;99.90;;;;;;4919085;28;20070;-62
2022/06/10 11:16:35;;;;;;;12.88;7.32;;;19.90;99.90;;;;;;4925875;28;21318;-59
2022/06/10 11:19:01;;;;;;;;;;;19.90;99.90;;;;;;4909289;28;20774;-62
2022/06/10 11:21:27;;;;;;;15.50;8.40;;;19.90;99.90;;;;;;4909430;28;19929;-60
2022/06/10 11:23:58;;;;;;;13.52;8.32;;;19.80;99.90;;;;;;4909543;28;20205;-60
2022/06/10 11:26:26;;;;;;;13.50;8.57;;;19.80;99.90;;;;;;4920546;28;20541;-61
2022/06/10 11:29:00;;;;;;;45.92;12.35;;;19.80;99.90;;;;;;4929551;28;20051;-62
2022/06/10 11:31:39;;;;;;;13.38;8.23;;;19.90;99.90;;;;;;4925388;28;20817;-61
2022/06/10 11:34:11;;;;;;;123.05;22.13;;;20.00;99.90;;;;;;4933618;28;20045;-57
2022/06/10 11:36:47;;;;;;;20.08;8.23;;;20.20;99.90;;;;;;4909111;28;20146;-60
2022/06/10 11:39:33;;;;;;;14.45;8.98;;;20.40;99.90;;;;;;4932684;28;20129;-59
2022/06/10 11:42:15;;;;;;;13.43;8.27;;;20.40;99.90;;;;;;4932231;28;20039;-60
2022/06/10 11:44:56;;;;;;;18.00;8.45;;;20.40;99.90;;;;;;4934302;28;20814;-59
2022/06/10 11:47:30;;;;;;;17.55;8.43;;;20.30;99.90;;;;;;4936964;28;20086;-61
2022/06/10 11:50:10;;;;;;;12.60;7.50;;;20.30;99.90;;;;;;4910462;28;20113;-61
2022/06/10 11:52:49;;;;;;;15.43;9.40;;;20.40;99.90;;;;;;4945397;28;20046;-60
2022/06/10 11:55:19;;;;;;;16.90;8.65;;;20.40;99.90;;;;;;4936098;28;20050;-59
2022/06/10 12:00:42;;;;;;;11.35;6.68;;;20.20;99.90;;;;;;4940457;28;20069;-61
2022/06/10 12:03:15;;;;;;;13.88;7.50;;;20.00;99.90;;;;;;4940187;28;20501;-59
2022/06/10 12:05:47;;;;;;;;;;;19.90;99.90;;;;;;4913268;28;20402;-60
2022/06/10 12:08:33;;;;;;;10.55;5.65;;;20.20;99.90;;;;;;4940229;28;19926;-62
2022/06/10 12:11:24;;;;;;;15.20;5.97;;;20.40;99.90;;;;;;4923582;28;20109;-58
2022/06/10 12:14:12;;;;;;;10.98;5.93;;;20.70;99.90;;;;;;4903635;28;20278;-65
2022/06/10 12:16:39;;;;;;;10.73;4.22;;;20.90;99.90;;;;;;4909637;28;20544;-64
2022/06/10 12:19:12;;;;;;;9.40;4.15;;;21.00;99.90;;;;;;4916458;28;20039;-62
2022/06/10 12:21:38;;;;;;;9.57;3.58;;;20.90;99.90;;;;;;4919982;28;20410;-62
2022/06/10 12:24:12;;;;;;;9.73;4.18;;;20.80;99.90;;;;;;4921525;28;22579;-62
2022/06/10 12:26:56;;;;;;;11.23;4.00;;;20.90;99.90;;;;;;4910105;28;20138;-62
2022/06/10 12:29:45;;;;;;;6.25;3.70;;;21.00;99.90;;;;;;4911874;28;20084;-63
2022/06/10 12:32:10;;;;;;;9.75;4.07;;;20.80;99.90;;;;;;4921395;28;20525;-62
2022/06/10 12:34:42;;;;;;;5.70;3.35;;;20.60;99.90;;;;;;4917725;28;20043;-59
2022/06/10 12:37:25;;;;;;;5.13;2.50;;;20.30;99.90;;;;;;4907532;28;20058;-61
2022/06/10 12:40:12;;;;;;;6.57;2.67;;;20.20;99.90;;;;;;4910895;28;22584;-62
2022/06/10 12:42:45;;;;;;;5.47;2.50;;;20.00;99.90;;;;;;4925849;28;20062;-62
2022/06/10 12:45:20;;;;;;;4.77;2.30;;;19.90;99.90;;;;;;4936628;28;20054;-60
2022/06/10 12:47:52;;;;;;;6.90;2.42;;;19.90;99.90;;;;;;4931576;28;20047;-63
2022/06/10 12:50:20;;;;;;;5.25;1.90;;;19.90;99.90;;;;;;4911641;28;21224;-62
2022/06/10 12:52:54;;;;;;;7.93;2.42;;;19.90;99.90;;;;;;4919645;28;21123;-63
2022/06/10 12:55:54;;;;;;;8.13;3.00;;;20.00;99.90;;;;;;4923803;28;20541;-60
2022/06/10 12:58:38;;;;;;;7.70;2.42;;;20.20;99.90;;;;;;4914418;28;20401;-61
2022/06/10 13:01:27;;;;;;;7.47;2.55;;;20.40;99.90;;;;;;4938079;28;20166;-61
2022/06/10 13:03:55;;;;;;;5.93;2.35;;;20.60;99.90;;;;;;4937339;28;20181;-63
2022/06/10 13:06:29;;;;;;;7.63;2.30;;;20.70;99.90;;;;;;4918928;28;20047;-62
2022/06/10 13:09:12;;;;;;;6.53;1.88;;;21.00;99.90;;;;;;4939300;28;20039;-61
2022/06/10 13:11:46;;;;;;;5.38;2.40;;;21.10;99.90;;;;;;4910144;28;20431;-62
2022/06/10 13:14:21;;;;;;;4.97;1.83;;;21.20;99.90;;;;;;4928073;28;20039;-62
2022/06/10 13:16:59;;;;;;;3.53;1.70;;;21.40;99.90;;;;;;4907360;28;20550;-63
2022/06/10 13:19:41;;;;;;;7.78;2.25;;;21.40;99.90;;;;;;4910437;28;20490;-60
2022/06/10 13:22:23;;;;;;;6.88;2.45;;;21.30;99.90;;;;;;4918716;28;20051;-61
2022/06/10 13:24:54;;;;;;;7.20;2.30;;;21.10;99.90;;;;;;4912848;28;20051;-60
2022/06/10 13:27:26;;;;;;;14.68;3.05;;;21.00;99.90;;;;;;4911509;28;20047;-60
2022/06/10 13:29:59;;;;;;;5.72;2.20;;;20.90;99.90;;;;;;4923536;28;20046;-63